Desert Aire, Washington
Current Conditions -  °F | °C
As of 8:53 AM on Friday 31 Oct 2014 (Local Time) from K1YT Reporting Station
Rain Showers Rain Showers  
Wind Chill: 50°   Ceiling: 900
Heat Index: 50°   Visibility: 2.2mi
Dew Point: 50°   Wind: 2mph
Humidity: 100%   Direction: 100°E
Pressure: 29.72"   Gusts: NA
Location:  46.6873°N, 119.887°W
Report Text: K1YT 311553Z AUTO 10002KT 2 1/4SM -SHRA BR BKN009 BKN060 10/10 A2972 RMK AO2 CIG 002V009
Loading
Personal Weather Stations






























Interactive Weather Map New forecast layout! Learn more

10-Day Weather Forecast

Advertisements
Track Severe Weather on mobile